Time;durP1;ratioP1;P1;durP2;ratioP2;P2;SDS_P1;SDS_P2;PMS_P1;PMS_P2;Temp;Humidity;BMP_temperature;BMP_pressure;BME280_temperature;BME280_humidity;BME280_pressure;Samples;Min_cycle;Max_cycle;Signal;HPM_P1;HPM_P2
2022/10/17 00:02:23;;;;;;;5.00;3.35;;;;;;;1.26;70.13;98099.88;6297430;28;20056;-69
2022/10/17 00:05:25;;;;;;;4.43;3.30;;;;;;;1.21;70.26;98099.88;6297318;28;20032;-69
2022/10/17 00:08:26;;;;;;;4.55;3.42;;;;;;;1.14;70.57;98098.25;6297037;28;20039;-69
2022/10/17 00:11:30;;;;;;;3.97;2.97;;;;;;;1.11;70.31;98103.44;6297031;28;20048;-70
2022/10/17 00:14:32;;;;;;;3.63;2.80;;;;;;;1.15;71.03;98105.13;6296605;28;20048;-69
2022/10/17 00:17:34;;;;;;;4.82;3.10;;;;;;;1.25;70.45;98106.78;6296044;28;20508;-70
2022/10/17 00:20:36;;;;;;;4.40;3.13;;;;;;;1.26;70.53;98098.13;6296713;28;20044;-69
2022/10/17 00:23:37;;;;;;;3.50;3.00;;;;;;;1.19;70.23;98098.19;6296627;28;20417;-69
2022/10/17 00:26:38;;;;;;;3.55;3.20;;;;;;;1.19;70.61;98111.13;6296450;28;20059;-68
2022/10/17 00:29:40;;;;;;;3.80;3.13;;;;;;;1.13;70.55;98106.88;6296239;28;20097;-70
2022/10/17 00:32:47;;;;;;;4.18;3.05;;;;;;;1.07;70.45;98106.91;6296701;28;20095;-68
2022/10/17 00:35:49;;;;;;;4.18;3.78;;;;;;;0.99;70.45;98098.34;6296277;28;20052;-69
2022/10/17 00:38:54;;;;;;;4.22;2.85;;;;;;;0.97;70.70;98105.28;6295607;28;20055;-69
2022/10/17 00:41:59;;;;;;;4.68;3.35;;;;;;;0.92;71.03;98114.81;6295300;28;20429;-69
2022/10/17 00:45:12;;;;;;;4.00;3.05;;;;;;;0.88;70.65;98117.41;6296487;28;20044;-69
2022/10/17 00:48:18;;;;;;;3.75;3.13;;;;;;;0.75;71.12;98109.72;6296196;28;20131;-69
2022/10/17 00:51:26;;;;;;;3.88;3.22;;;;;;;0.68;70.64;98111.50;6296224;28;20048;-69
2022/10/17 00:54:33;;;;;;;4.45;3.10;;;;;;;0.69;70.92;98121.00;6296395;28;20040;-69
2022/10/17 00:57:38;;;;;;;4.03;3.20;;;;;;;0.57;70.95;98108.97;6296090;28;20055;-69
2022/10/17 01:00:41;;;;;;;5.75;3.47;;;;;;;0.59;71.08;98120.16;6295179;28;20522;-70
2022/10/17 01:03:43;;;;;;;4.38;3.63;;;;;;;0.58;70.95;98127.97;6295590;28;20174;-69
2022/10/17 01:06:52;;;;;;;3.25;2.90;;;;;;;0.55;71.26;98131.41;6295950;28;20090;-68
2022/10/17 01:09:54;;;;;;;3.58;3.22;;;;;;;0.53;71.17;98125.38;6295802;28;20052;-68
2022/10/17 01:13:15;;;;;;;4.20;3.20;;;;;;;0.59;71.21;98132.25;6295724;28;20139;-70
2022/10/17 01:16:22;;;;;;;4.90;3.92;;;;;;;0.61;70.79;98135.72;6295774;28;20391;-69
2022/10/17 01:19:33;;;;;;;5.28;3.78;;;;;;;0.64;70.71;98127.91;6295664;28;20047;-69
2022/10/17 01:23:12;;;;;;;5.93;4.53;;;;;;;0.68;70.75;98129.66;6295928;28;20506;-69
2022/10/17 01:26:58;;;;;;;4.53;3.45;;;;;;;0.73;70.96;98125.28;6289138;28;20058;-69
2022/10/17 01:30:33;;;;;;;4.18;3.13;;;;;;;0.77;70.86;98123.53;6285603;28;20049;-69
2022/10/17 01:33:49;;;;;;;5.03;2.92;;;;;;;0.90;70.62;98125.16;6295447;28;20056;-69
2022/10/17 01:37:13;;;;;;;4.43;2.88;;;;;;;1.02;70.22;98130.28;6295352;28;20057;-69
2022/10/17 01:40:35;;;;;;;3.45;2.75;;;;;;;1.08;69.85;98124.22;6295583;28;20036;-68
2022/10/17 01:43:43;;;;;;;4.03;3.10;;;;;;;1.12;70.29;98120.72;6295450;28;20098;-68
2022/10/17 01:47:02;;;;;;;2.83;2.20;;;;;;;1.26;70.08;98118.00;6295082;28;20648;-68
2022/10/17 01:50:11;;;;;;;2.15;1.95;;;;;;;1.37;69.96;98125.72;6294595;28;20052;-69
2022/10/17 01:53:38;;;;;;;2.45;2.25;;;;;;;1.44;70.02;98127.38;6295722;28;20426;-68
2022/10/17 01:56:41;;;;;;;2.13;1.70;;;;;;;1.43;69.66;98125.66;6297451;28;20059;-70
2022/10/17 01:59:46;;;;;;;2.97;2.10;;;;;;;1.39;69.48;98130.03;6299975;28;20051;-70
2022/10/17 02:02:55;;;;;;;2.08;1.90;;;;;;;1.38;69.31;98122.25;6300158;28;20131;-69
2022/10/17 02:05:57;;;;;;;1.98;1.75;;;;;;;1.38;69.65;98117.06;6300276;28;20056;-69
2022/10/17 02:08:58;;;;;;;3.13;2.30;;;;;;;1.37;69.42;98125.72;6298811;28;20050;-69
2022/10/17 02:12:27;;;;;;;4.82;2.35;;;;;;;1.39;69.09;98119.66;6299915;28;20040;-68
2022/10/17 02:15:37;;;;;;;3.35;2.60;;;;;;;1.37;69.41;98131.75;6299834;28;20044;-68
2022/10/17 02:19:10;;;;;;;2.50;2.10;;;;;;;1.42;69.78;98131.72;6299278;28;20048;-69
2022/10/17 02:22:38;;;;;;;2.90;2.17;;;;;;;1.43;69.64;98136.03;6299224;28;20045;-70
2022/10/17 02:26:10;;;;;;;2.85;1.98;;;;;;;1.37;69.79;98130.91;6299787;28;20063;-69
2022/10/17 02:29:24;;;;;;;3.28;2.00;;;;;;;1.30;69.69;98123.19;6299674;28;20055;-69
2022/10/17 02:32:54;;;;;;;2.45;1.92;;;;;;;1.24;69.74;98125.78;6299068;28;20068;-70
2022/10/17 02:36:08;;;;;;;3.78;2.22;;;;;;;1.20;69.47;98134.47;6298950;28;20056;-70
2022/10/17 02:39:16;;;;;;;3.10;2.20;;;;;;;1.10;69.92;98132.81;6299354;28;20052;-70
2022/10/17 02:42:21;;;;;;;2.58;2.00;;;;;;;1.16;69.65;98129.31;6297329;28;20048;-69
2022/10/17 02:45:25;;;;;;;2.92;2.33;;;;;;;1.08;70.22;98113.84;6297779;28;20040;-69
2022/10/17 02:48:50;;;;;;;2.67;2.30;;;;;;;1.19;69.81;98126.69;6298830;28;20052;-69
2022/10/17 02:51:56;;;;;;;2.20;1.98;;;;;;;1.14;70.04;98129.34;6299117;28;20049;-69
2022/10/17 02:55:06;;;;;;;2.75;2.33;;;;;;;1.07;69.87;98117.28;6298461;28;20067;-71
2022/10/17 02:58:18;;;;;;;3.67;2.58;;;;;;;1.24;69.72;98130.97;6298841;28;20478;-69
2022/10/17 03:01:24;;;;;;;3.33;2.63;;;;;;;1.19;70.32;98135.38;6298396;28;20068;-69
2022/10/17 03:04:25;;;;;;;3.50;2.40;;;;;;;1.21;69.99;98141.38;6297691;28;20502;-69
2022/10/17 03:07:29;;;;;;;5.05;2.45;;;;;;;1.34;69.55;98148.19;6298557;28;20063;-70
2022/10/17 03:10:33;;;;;;;5.30;3.33;;;;;;;1.56;69.36;98148.88;6298597;28;20056;-70
2022/10/17 03:13:35;;;;;;;4.78;3.10;;;;;;;1.56;69.68;98148.03;6298377;28;20033;-70
2022/10/17 03:16:38;;;;;;;4.30;3.20;;;;;;;1.67;69.81;98151.41;6298207;28;20210;-69
2022/10/17 03:19:42;;;;;;;3.13;2.45;;;;;;;1.70;69.48;98156.56;6297844;28;20049;-69
2022/10/17 03:22:43;;;;;;;;;;;;;;;1.73;69.00;98160.88;6298375;28;20506;-69
2022/10/17 03:25:47;;;;;;;2.65;2.38;;;;;;;1.62;69.30;98158.34;6297945;28;19920;-70
2022/10/17 03:28:48;;;;;;;4.00;2.40;;;;;;;1.56;69.86;98155.81;6298131;28;20167;-70
2022/10/17 03:31:50;;;;;;;2.67;2.28;;;;;;;1.65;69.34;98152.28;6298087;28;20171;-69
2022/10/17 03:34:54;;;;;;;2.67;2.22;;;;;;;1.73;69.45;98151.34;6297985;28;20055;-69
2022/10/17 03:37:58;;;;;;;2.20;1.83;;;;;;;1.77;69.31;98157.34;6297205;28;20410;-69
2022/10/17 03:41:04;;;;;;;4.32;2.40;;;;;;;1.80;69.75;98155.56;6297634;28;20512;-69
2022/10/17 03:44:08;;;;;;;3.50;2.40;;;;;;;1.80;69.42;98158.19;6297745;28;20040;-70
2022/10/17 03:47:09;;;;;;;1.98;1.75;;;;;;;1.85;69.47;98159.88;6297447;28;20052;-70
2022/10/17 03:50:13;;;;;;;2.95;2.63;;;;;;;1.88;69.65;98154.66;6297433;28;20131;-69
2022/10/17 03:53:20;;;;;;;3.45;2.50;;;;;;;1.94;69.46;98154.59;6296729;28;20048;-70
2022/10/17 03:56:23;;;;;;;2.60;2.40;;;;;;;2.01;69.22;98157.13;6297235;28;20454;-70
2022/10/17 03:59:25;;;;;;;3.15;2.75;;;;;;;2.08;69.39;98157.91;6297144;28;20044;-70
2022/10/17 04:02:29;;;;;;;2.60;2.40;;;;;;;2.14;69.40;98160.44;6297692;28;20036;-69
2022/10/17 04:05:30;;;;;;;8.90;5.50;;;;;;;2.25;69.54;98163.78;6297021;28;20045;-70
2022/10/17 04:08:35;;;;;;;2.97;2.40;;;;;;;2.39;69.38;98173.16;6296491;28;20052;-70
2022/10/17 04:11:39;;;;;;;6.88;2.58;;;;;;;2.60;69.15;98170.28;6296998;28;20052;-70
2022/10/17 04:14:44;;;;;;;3.42;2.70;;;;;;;2.92;68.25;98169.03;6296661;28;20044;-69
2022/10/17 04:17:46;;;;;;;5.18;2.70;;;;;;;3.42;67.99;98172.63;6295455;28;20202;-69
2022/10/17 04:20:47;;;;;;;4.18;3.15;;;;;;;4.01;67.11;98170.75;6296531;28;20048;-69
2022/10/17 04:23:59;;;;;;;4.90;2.05;;;;;;;4.73;65.46;98169.38;6295980;28;20099;-69
2022/10/17 04:27:00;;;;;;;5.00;2.75;;;;;;;5.36;64.07;98170.59;6296035;28;20045;-69
2022/10/17 04:30:02;;;;;;;5.28;2.00;;;;;;;5.96;62.13;98174.41;6296456;28;20133;-69
2022/10/17 04:33:04;;;;;;;1.70;1.58;;;;;;;6.29;61.88;98177.91;6296237;28;20076;-71
2022/10/17 04:36:13;;;;;;;2.63;1.75;;;;;;;6.39;60.76;98180.25;6296351;28;20498;-70
2022/10/17 04:39:17;;;;;;;3.97;2.55;;;;;;;6.40;60.33;98182.00;6296222;28;20143;-69
2022/10/17 04:42:18;;;;;;;3.13;2.35;;;;;;;6.45;60.32;98180.09;6296058;28;20044;-69
2022/10/17 04:45:23;;;;;;;2.40;1.55;;;;;;;6.47;59.59;98184.38;6295838;28;20059;-69
2022/10/17 04:48:24;;;;;;;3.72;1.50;;;;;;;6.59;59.78;98182.31;6296015;28;20531;-69
2022/10/17 04:51:25;;;;;;;2.38;1.80;;;;;;;6.86;58.76;98172.84;6295414;28;20040;-69
2022/10/17 04:54:27;;;;;;;1.95;1.38;;;;;;;7.18;58.16;98180.56;6295397;28;20413;-68
2022/10/17 04:57:32;;;;;;;3.58;1.67;;;;;;;7.39;57.62;98175.59;6295916;28;20053;-68
2022/10/17 05:00:37;;;;;;;2.25;1.63;;;;;;;7.74;56.92;98184.94;6295604;28;20492;-70
2022/10/17 05:03:41;;;;;;;3.65;2.10;;;;;;;7.86;56.22;98186.31;6295793;28;20084;-70
2022/10/17 05:06:47;;;;;;;4.85;2.58;;;;;;;8.04;55.95;98190.94;6294598;28;20506;-68
2022/10/17 05:09:51;;;;;;;4.93;3.17;;;;;;;8.30;55.14;98192.69;6295433;28;20050;-67
2022/10/17 05:12:55;;;;;;;4.72;3.22;;;;;;;8.43;54.88;98195.75;6295469;28;20049;-69
2022/10/17 05:16:01;;;;;;;3.55;2.63;;;;;;;8.43;54.57;98190.50;6294893;28;20125;-68
2022/10/17 05:19:02;;;;;;;3.78;2.65;;;;;;;8.36;54.80;98190.75;6294577;28;20051;-69
2022/10/17 05:22:03;;;;;;;4.43;2.60;;;;;;;8.30;55.14;98189.19;6295459;28;20056;-68
2022/10/17 05:25:06;;;;;;;2.35;2.17;;;;;;;8.35;55.09;98189.91;6295403;28;20055;-69
2022/10/17 05:28:10;;;;;;;4.10;2.40;;;;;;;8.41;55.11;98197.59;6295085;28;20082;-69
2022/10/17 05:31:17;;;;;;;5.20;2.90;;;;;;;8.35;55.28;98197.78;6295379;28;20036;-69
2022/10/17 05:34:23;;;;;;;2.88;2.58;;;;;;;8.19;55.73;98191.34;6295333;28;20044;-69
2022/10/17 05:37:30;;;;;;;2.90;2.17;;;;;;;8.02;56.25;98195.38;6295158;28;20048;-69
2022/10/17 05:40:33;;;;;;;5.80;3.30;;;;;;;7.88;56.43;98189.75;6295242;28;20044;-69
2022/10/17 05:43:35;;;;;;;3.67;2.40;;;;;;;7.73;57.43;98195.47;6295064;28;20045;-69
2022/10/17 05:46:40;;;;;;;3.58;2.05;;;;;;;7.80;57.38;98194.38;6295232;28;20171;-69
2022/10/17 05:49:41;;;;;;;5.97;3.35;;;;;;;8.03;57.10;98193.59;6294933;28;20052;-70
2022/10/17 05:52:47;;;;;;;6.18;3.40;;;;;;;10.59;52.62;98183.78;6295310;28;20055;-70
2022/10/17 05:55:58;;;;;;;4.78;2.80;;;;;;;16.34;39.38;98198.75;6294851;28;20075;-70
2022/10/17 05:58:59;;;;;;;2.50;2.15;;;;;;;21.07;33.40;98196.25;6295243;28;20418;-69
2022/10/17 06:02:03;;;;;;;1.85;1.42;;;;;;;24.32;28.54;98185.72;6293837;28;20442;-69
2022/10/17 06:05:07;;;;;;;0.93;0.70;;;;;;;26.37;25.79;98193.03;6294932;28;20422;-69
2022/10/17 06:08:11;;;;;;;0.95;0.63;;;;;;;27.71;23.06;98187.97;6293928;28;20133;-69
2022/10/17 06:11:15;;;;;;;1.20;0.90;;;;;;;28.80;20.87;98190.66;6294748;28;20055;-70
2022/10/17 06:14:17;;;;;;;1.98;1.30;;;;;;;28.03;20.71;98183.44;6294674;28;20098;-69
2022/10/17 06:17:22;;;;;;;2.42;2.00;;;;;;;26.81;21.60;98188.19;6294417;28;20129;-68
2022/10/17 06:20:23;;;;;;;10.15;5.90;;;;;;;25.05;22.72;98186.31;6294935;28;20067;-69
2022/10/17 06:23:27;;;;;;;5.88;4.00;;;;;;;24.91;22.90;98186.00;6294617;28;20501;-69
2022/10/17 06:26:32;;;;;;;4.07;2.10;;;;;;;26.81;20.91;98182.78;6294683;28;20044;-68
2022/10/17 06:29:34;;;;;;;2.22;1.55;;;;;;;24.43;22.17;98182.81;6294685;28;20043;-68
2022/10/17 06:32:38;;;;;;;2.58;1.80;;;;;;;22.67;24.49;98178.38;6295140;28;20053;-69
2022/10/17 06:35:42;;;;;;;2.47;1.25;;;;;;;20.00;27.14;98175.91;6294738;28;20051;-69
2022/10/17 06:38:47;;;;;;;0.80;0.50;;;;;;;18.64;28.91;98174.22;6294795;28;20076;-69
2022/10/17 06:41:51;;;;;;;0.77;0.40;;;;;;;18.54;29.07;98182.09;6297860;28;20056;-69
2022/10/17 06:44:53;;;;;;;1.67;0.57;;;;;;;17.42;30.65;98176.19;6298782;28;20063;-69
2022/10/17 06:47:54;;;;;;;2.65;1.10;;;;;;;17.77;30.42;98178.94;6298784;28;20049;-69
2022/10/17 06:51:00;;;;;;;;;;;;;;;17.98;30.08;98178.38;6299302;28;20105;-69
2022/10/17 06:54:04;;;;;;;1.40;0.82;;;;;;;16.36;32.10;98168.47;6299015;28;19916;-69
2022/10/17 06:57:05;;;;;;;2.22;0.98;;;;;;;17.82;30.70;98187.47;6298730;28;20085;-69
2022/10/17 07:00:07;;;;;;;1.92;1.08;;;;;;;18.06;30.15;98167.97;6298551;28;20040;-69
2022/10/17 07:03:12;;;;;;;2.03;1.25;;;;;;;16.80;31.45;98169.03;6298421;28;20135;-70
2022/10/17 07:06:16;;;;;;;1.67;0.70;;;;;;;16.32;32.67;98174.06;6298767;28;20121;-69
2022/10/17 07:09:21;;;;;;;1.40;0.80;;;;;;;16.25;32.70;98173.66;6298867;28;20130;-69
2022/10/17 07:12:23;;;;;;;0.75;0.70;;;;;;;18.89;29.15;98173.22;6298404;28;20391;-68
2022/10/17 07:15:26;;;;;;;2.05;0.70;;;;;;;19.62;27.76;98176.34;6297736;28;20060;-69
2022/10/17 07:18:30;;;;;;;0.80;0.57;;;;;;;19.68;27.77;98182.06;6298415;28;20090;-70
2022/10/17 07:21:34;;;;;;;1.63;1.05;;;;;;;22.90;24.42;98176.22;6298384;28;20036;-69
2022/10/17 07:24:40;;;;;;;3.70;1.30;;;;;;;25.95;20.81;98189.44;6297195;28;20052;-68
2022/10/17 07:27:47;;;;;;;0.93;0.82;;;;;;;27.92;19.03;98183.84;6298152;28;20036;-69
2022/10/17 07:30:48;;;;;;;2.28;1.23;;;;;;;27.46;18.84;98180.97;6298206;28;20044;-68
2022/10/17 07:33:52;;;;;;;3.78;1.70;;;;;;;25.78;20.76;98176.88;6297902;28;20209;-68
2022/10/17 07:36:58;;;;;;;1.42;0.80;;;;;;;27.27;19.09;98174.13;6297891;28;20044;-70
2022/10/17 07:40:05;;;;;;;1.48;0.80;;;;;;;29.49;17.50;98177.75;6298142;28;20048;-69
2022/10/17 07:43:08;;;;;;;2.13;0.80;;;;;;;31.14;16.07;98177.00;6297712;28;20422;-69
2022/10/17 07:46:13;;;;;;;1.42;0.77;;;;;;;32.58;15.25;98176.16;6297522;28;20044;-69
2022/10/17 07:49:14;;;;;;;1.00;0.73;;;;;;;31.32;15.30;98169.16;6297606;28;20502;-69
2022/10/17 07:52:18;;;;;;;0.85;0.60;;;;;;;31.34;15.35;98174.41;6297465;28;20098;-69
2022/10/17 07:55:19;;;;;;;1.73;0.77;;;;;;;29.95;17.07;98169.41;6297215;28;20052;-69
2022/10/17 07:58:30;;;;;;;0.75;0.60;;;;;;;30.51;16.29;98165.19;6297321;28;20068;-69
2022/10/17 08:01:31;;;;;;;0.70;0.70;;;;;;;31.13;15.02;98153.56;6297329;28;20123;-70
2022/10/17 08:04:35;;;;;;;1.38;0.60;;;;;;;31.21;15.08;98155.28;6297258;28;20052;-69
2022/10/17 08:07:40;;;;;;;0.43;0.30;;;;;;;31.38;14.99;98151.22;6297185;28;20494;-68
2022/10/17 08:10:41;;;;;;;;;;;;;;;32.86;14.61;98165.03;6297753;28;20183;-69
2022/10/17 08:13:43;;;;;;;1.00;0.63;;;;;;;29.84;16.01;98148.19;6297028;28;20469;-70
2022/10/17 08:16:44;;;;;;;1.55;0.80;;;;;;;28.29;17.24;98141.66;6296728;28;20051;-69
2022/10/17 08:19:46;;;;;;;0.65;0.50;;;;;;;28.47;17.04;98142.19;6295506;28;20086;-69
2022/10/17 08:22:51;;;;;;;2.05;0.75;;;;;;;27.40;17.88;98141.13;6296619;28;20053;-69
2022/10/17 08:25:57;;;;;;;1.85;0.70;;;;;;;24.70;20.35;98137.94;6296775;28;20037;-69
2022/10/17 08:29:01;;;;;;;0.73;0.68;;;;;;;22.54;22.49;98125.06;6296511;28;20051;-69
2022/10/17 08:32:06;;;;;;;0.77;0.40;;;;;;;21.72;23.94;98123.63;6296352;28;20044;-69
2022/10/17 08:35:08;;;;;;;0.80;0.57;;;;;;;21.76;23.52;98122.34;6296213;28;20049;-69
2022/10/17 08:38:12;;;;;;;2.90;0.82;;;;;;;21.78;23.42;98123.06;6295042;28;20335;-69
2022/10/17 08:41:39;;;;;;;3.72;1.80;;;;;;;20.44;25.14;98125.91;6295945;28;20060;-69
2022/10/17 08:45:09;;;;;;;4.93;2.40;;;;;;;18.99;27.34;98115.50;6296025;28;20048;-69
2022/10/17 08:48:16;;;;;;;1.80;1.20;;;;;;;21.33;24.57;98104.78;6296263;28;20135;-69
2022/10/17 08:51:32;;;;;;;2.55;1.58;;;;;;;23.97;21.63;98104.03;6296092;28;20044;-69
2022/10/17 08:54:44;;;;;;;2.92;1.20;;;;;;;26.74;19.18;98108.88;6295181;28;20056;-70
2022/10/17 08:57:51;;;;;;;1.63;1.20;;;;;;;27.92;17.76;98118.91;6295958;28;20054;-70
2022/10/17 09:01:02;;;;;;;0.63;0.43;;;;;;;30.15;16.15;98109.91;6296003;28;20039;-69
2022/10/17 09:04:18;;;;;;;2.08;0.63;;;;;;;28.99;16.91;98110.72;6295534;28;20102;-69
2022/10/17 09:07:34;;;;;;;1.38;0.60;;;;;;;26.64;18.72;98097.44;6295619;28;20044;-69
2022/10/17 09:10:50;;;;;;;0.75;0.70;;;;;;;25.07;19.95;98098.09;6294523;28;20506;-69
2022/10/17 09:14:11;;;;;;;1.17;0.70;;;;;;;22.53;22.67;98085.78;6295417;28;20046;-69
2022/10/17 09:17:42;;;;;;;3.80;1.40;;;;;;;20.91;24.75;98086.19;6295320;28;20575;-69
2022/10/17 09:20:50;;;;;;;3.70;1.80;;;;;;;20.23;25.60;98087.63;6295444;28;20051;-69
2022/10/17 09:24:02;;;;;;;2.70;1.55;;;;;;;19.54;26.66;98083.53;6295738;28;20044;-69
2022/10/17 09:27:14;;;;;;;2.45;1.17;;;;;;;22.07;23.59;98090.06;6295189;28;20041;-69
2022/10/17 09:30:41;;;;;;;1.63;0.98;;;;;;;24.75;20.66;98097.94;6295302;28;20405;-69
2022/10/17 09:33:47;;;;;;;1.90;1.40;;;;;;;24.34;20.48;98089.53;6295076;28;20141;-70
2022/10/17 09:36:48;;;;;;;2.33;1.40;;;;;;;24.39;20.54;98087.22;6295314;28;20045;-69
2022/10/17 09:39:52;;;;;;;2.42;1.50;;;;;;;25.67;19.36;98080.13;6294172;28;20135;-69
2022/10/17 09:42:56;;;;;;;2.35;2.15;;;;;;;26.46;18.75;98077.84;6295216;28;20525;-70
2022/10/17 09:46:03;;;;;;;4.10;2.10;;;;;;;26.06;18.78;98087.63;6294463;28;20620;-70
2022/10/17 09:49:24;;;;;;;2.50;1.98;;;;;;;26.34;18.81;98086.28;6295013;28;20064;-70
2022/10/17 09:52:46;;;;;;;1.33;1.00;;;;;;;23.48;21.34;98079.34;6294914;28;20041;-69
2022/10/17 09:55:56;;;;;;;2.38;2.05;;;;;;;21.29;24.04;98084.63;6295042;28;20064;-69
2022/10/17 09:59:02;;;;;;;1.67;1.15;;;;;;;18.55;27.42;98065.66;6295041;28;20418;-68
2022/10/17 10:02:23;;;;;;;2.28;1.77;;;;;;;16.66;30.43;98073.44;6294820;28;20135;-69
2022/10/17 10:05:25;;;;;;;3.15;1.02;;;;;;;17.02;30.32;98076.19;6293879;28;20060;-69
2022/10/17 10:08:47;;;;;;;1.23;0.65;;;;;;;20.56;25.55;98059.84;6294993;28;20048;-69
2022/10/17 10:11:55;;;;;;;1.05;0.75;;;;;;;23.20;22.18;98078.50;6295068;28;20040;-70
2022/10/17 10:14:59;;;;;;;1.65;1.10;;;;;;;22.74;22.13;98073.03;6296698;28;20123;-70
2022/10/17 10:18:21;;;;;;;2.45;1.00;;;;;;;21.70;23.44;98066.66;6299009;28;20517;-69
2022/10/17 10:21:25;;;;;;;2.55;0.85;;;;;;;22.48;22.80;98063.94;6299408;28;20052;-70
2022/10/17 10:24:33;;;;;;;2.58;0.90;;;;;;;22.96;21.96;98065.66;6299458;28;20049;-69
2022/10/17 10:27:35;;;;;;;5.13;2.83;;;;;;;21.88;23.11;98070.34;6299303;28;20044;-69
2022/10/17 10:30:39;;;;;;;4.53;2.80;;;;;;;19.77;25.59;98056.78;6299304;28;20573;-69
2022/10/17 10:33:45;;;;;;;6.10;2.60;;;;;;;17.95;28.22;98057.81;6299115;28;20417;-71
2022/10/17 10:37:01;;;;;;;6.30;3.58;;;;;;;18.46;27.67;98055.72;6299186;28;20075;-69
2022/10/17 10:40:06;;;;;;;7.32;4.25;;;;;;;17.61;28.80;98055.97;6298988;28;20091;-70
2022/10/17 10:43:28;;;;;;;7.50;3.92;;;;;;;16.34;30.91;98068.59;6298995;28;20052;-69
2022/10/17 10:46:30;;;;;;;5.57;3.33;;;;;;;15.17;33.01;98059.56;6298757;28;20071;-70
2022/10/17 10:49:37;;;;;;;5.88;3.35;;;;;;;14.22;34.78;98061.03;6299028;28;20474;-70
2022/10/17 10:53:06;;;;;;;5.90;2.45;;;;;;;13.60;35.52;98060.34;6298818;28;20387;-69
2022/10/17 10:56:21;;;;;;;8.85;5.13;;;;;;;13.38;36.42;98064.19;6298637;28;20127;-70
2022/10/17 10:59:57;;;;;;;5.22;2.88;;;;;;;13.13;37.14;98063.84;6298790;28;20052;-70
2022/10/17 11:03:16;;;;;;;7.78;4.50;;;;;;;12.75;37.79;98069.47;6298617;28;20049;-69
2022/10/17 11:06:26;;;;;;;4.20;2.35;;;;;;;12.49;38.36;98053.25;6297421;28;20079;-71
2022/10/17 11:10:04;;;;;;;4.60;2.80;;;;;;;12.61;38.32;98056.19;6297477;28;20044;-70
2022/10/17 11:13:14;;;;;;;3.83;1.85;;;;;;;12.34;38.81;98052.31;6298263;28;20045;-70
2022/10/17 11:16:37;;;;;;;4.03;2.00;;;;;;;12.20;39.14;98053.94;6298226;28;20063;-70
2022/10/17 11:19:44;;;;;;;4.40;2.95;;;;;;;12.15;39.41;98053.34;6298380;28;20056;-70
2022/10/17 11:22:56;;;;;;;4.07;2.58;;;;;;;12.03;39.76;98054.81;6298246;28;20482;-68
2022/10/17 11:26:05;;;;;;;3.95;1.50;;;;;;;11.98;39.78;98048.94;6297379;28;20059;-69
2022/10/17 11:29:11;;;;;;;2.80;1.40;;;;;;;11.78;40.31;98049.94;6298368;28;20539;-69
2022/10/17 11:32:40;;;;;;;3.13;1.40;;;;;;;11.59;40.95;98050.84;6298262;28;20052;-68
2022/10/17 11:35:48;;;;;;;2.08;1.63;;;;;;;11.48;41.42;98047.91;6298030;28;20047;-68
2022/10/17 11:38:59;;;;;;;3.75;2.35;;;;;;;11.48;41.68;98047.91;6297354;28;20060;-69
2022/10/17 11:42:19;;;;;;;3.60;1.65;;;;;;;11.55;41.29;98044.03;6297486;28;20071;-69
2022/10/17 11:45:25;;;;;;;4.75;1.45;;;;;;;11.84;40.87;98034.66;6297136;28;20422;-69
2022/10/17 11:48:38;;;;;;;2.55;1.70;;;;;;;12.56;39.90;98040.56;6296915;28;20052;-70
2022/10/17 11:51:47;;;;;;;2.60;1.35;;;;;;;14.13;36.83;98046.56;6297620;28;20048;-69
2022/10/17 11:54:56;;;;;;;1.30;1.10;;;;;;;15.29;34.93;98050.81;6297118;28;20072;-69
2022/10/17 11:58:09;;;;;;;1.15;1.00;;;;;;;15.75;34.17;98049.63;6297273;28;20040;-70
2022/10/17 12:01:29;;;;;;;1.23;0.98;;;;;;;16.04;33.56;98053.78;6297341;28;20404;-68
2022/10/17 12:04:33;;;;;;;1.63;0.80;;;;;;;16.21;33.15;98057.09;6297211;28;20473;-69
2022/10/17 12:07:47;;;;;;;2.83;1.23;;;;;;;16.10;33.14;98048.06;6296364;28;20075;-71
2022/10/17 12:10:53;;;;;;;2.05;1.30;;;;;;;16.05;33.39;98046.66;6296869;28;20120;-69
2022/10/17 12:13:56;;;;;;;1.73;1.10;;;;;;;15.94;33.39;98050.06;6295651;28;20070;-69
2022/10/17 12:17:00;;;;;;;4.77;1.43;;;;;;;15.18;34.66;98037.41;6296837;28;20036;-68
2022/10/17 12:20:27;;;;;;;2.17;1.30;;;;;;;14.69;35.49;98044.06;6297170;28;20131;-70
2022/10/17 12:23:35;;;;;;;3.28;1.25;;;;;;;14.40;36.11;98052.91;6296789;28;20494;-70
2022/10/17 12:26:39;;;;;;;2.15;1.10;;;;;;;13.97;36.60;98044.94;6296625;28;20421;-70
2022/10/17 12:29:40;;;;;;;1.95;1.33;;;;;;;13.57;37.26;98042.00;6296783;28;20119;-69
2022/10/17 12:33:10;;;;;;;2.88;1.63;;;;;;;13.02;38.43;98046.81;6296285;28;20055;-69
2022/10/17 12:36:26;;;;;;;2.63;1.65;;;;;;;12.42;39.49;98051.88;6296625;28;20056;-70
2022/10/17 12:39:28;;;;;;;2.55;1.35;;;;;;;11.77;40.93;98048.22;6296353;28;20051;-70
2022/10/17 12:42:31;;;;;;;4.68;2.58;;;;;;;11.30;41.90;98048.81;6296085;28;20417;-69
2022/10/17 12:45:52;;;;;;;3.65;2.20;;;;;;;10.85;42.64;98052.75;6296123;28;20033;-69
2022/10/17 12:49:17;;;;;;;4.57;3.28;;;;;;;10.41;43.86;98043.31;6295917;28;20057;-69
2022/10/17 12:52:21;;;;;;;5.03;3.00;;;;;;;9.95;44.96;98041.88;6295843;28;20068;-69
2022/10/17 12:55:24;;;;;;;3.53;2.08;;;;;;;9.55;45.82;98046.22;6296137;28;20051;-70
2022/10/17 12:58:29;;;;;;;4.40;1.58;;;;;;;9.19;46.58;98046.78;6296106;28;20494;-69
2022/10/17 13:01:34;;;;;;;3.92;1.63;;;;;;;8.87;47.27;98048.09;6295337;28;20517;-69
2022/10/17 13:04:38;;;;;;;4.15;1.58;;;;;;;8.60;48.06;98039.50;6295752;28;20036;-69
2022/10/17 13:07:47;;;;;;;3.08;1.15;;;;;;;8.44;48.89;98047.97;6295347;28;20063;-69
2022/10/17 13:10:53;;;;;;;1.92;1.17;;;;;;;8.24;49.08;98037.34;6294792;28;20048;-69
2022/10/17 13:13:59;;;;;;;3.95;2.08;;;;;;;8.06;48.97;98039.69;6295657;28;20051;-70
2022/10/17 13:17:04;;;;;;;3.05;1.80;;;;;;;7.89;49.81;98036.81;6294912;28;20572;-69
2022/10/17 13:20:18;;;;;;;1.70;1.55;;;;;;;7.82;50.84;98038.81;6295394;28;20055;-70
2022/10/17 13:23:24;;;;;;;1.83;1.27;;;;;;;7.67;50.40;98046.34;6293519;28;20101;-70
2022/10/17 13:26:32;;;;;;;2.00;1.20;;;;;;;7.51;50.69;98039.03;6295088;28;20102;-70
2022/10/17 13:29:43;;;;;;;2.47;1.13;;;;;;;7.35;50.77;98040.44;6295201;28;20045;-68
2022/10/17 13:32:48;;;;;;;2.58;1.50;;;;;;;7.23;51.51;98040.84;6294897;28;20585;-71
2022/10/17 13:35:50;;;;;;;1.70;1.20;;;;;;;7.11;51.46;98037.72;6295161;28;20056;-70
2022/10/17 13:38:52;;;;;;;2.40;1.73;;;;;;;7.05;51.70;98042.28;6295284;28;20045;-69
2022/10/17 13:41:57;;;;;;;1.50;1.30;;;;;;;6.96;52.54;98048.66;6294686;28;20044;-70
2022/10/17 13:45:02;;;;;;;1.70;1.40;;;;;;;6.84;52.56;98046.44;6294749;28;20426;-70
2022/10/17 13:48:23;;;;;;;4.45;1.55;;;;;;;6.66;53.44;98046.09;6294501;28;20509;-69
2022/10/17 13:51:28;;;;;;;1.70;1.52;;;;;;;6.49;53.74;98038.78;6301666;28;20060;-70
2022/10/17 13:54:39;;;;;;;3.85;1.98;;;;;;;6.40;54.00;98040.81;6303276;28;20040;-70
2022/10/17 13:57:46;;;;;;;3.42;1.98;;;;;;;6.25;54.19;98035.09;6303334;28;20056;-70
2022/10/17 14:00:51;;;;;;;4.55;2.90;;;;;;;6.24;54.62;98037.78;6303395;28;20512;-70
2022/10/17 14:03:53;;;;;;;5.47;3.22;;;;;;;6.18;54.86;98044.03;6303234;28;20123;-70
2022/10/17 14:07:03;;;;;;;5.18;2.25;;;;;;;6.12;54.86;98049.44;6303401;28;20041;-70
2022/10/17 14:10:17;;;;;;;5.25;2.45;;;;;;;6.12;55.50;98044.22;6303420;28;20040;-69
2022/10/17 14:13:24;;;;;;;4.30;2.47;;;;;;;6.01;55.70;98041.91;6303364;28;20417;-70
2022/10/17 14:16:42;;;;;;;4.97;2.40;;;;;;;5.90;56.13;98036.09;6302938;28;20052;-70
2022/10/17 14:19:43;;;;;;;4.93;2.03;;;;;;;5.86;55.90;98039.69;6303259;28;20151;-72
2022/10/17 14:22:46;;;;;;;3.70;2.50;;;;;;;5.82;55.93;98038.88;6303170;28;20036;-69
2022/10/17 14:26:13;;;;;;;3.83;2.25;;;;;;;5.76;56.55;98036.44;6303071;28;20398;-70
2022/10/17 14:29:30;;;;;;;3.05;2.08;;;;;;;5.66;56.58;98047.19;6303242;28;20413;-70
2022/10/17 14:32:33;;;;;;;2.63;1.83;;;;;;;5.57;56.56;98053.50;6302826;28;20474;-71
2022/10/17 14:35:38;;;;;;;2.92;1.70;;;;;;;5.48;57.09;98041.53;6302889;28;20040;-71
2022/10/17 14:38:50;;;;;;;3.40;2.28;;;;;;;5.51;57.31;98051.06;6302780;28;20044;-71
2022/10/17 14:41:55;;;;;;;4.20;3.03;;;;;;;5.48;57.26;98052.00;6302910;28;20056;-71
2022/10/17 14:45:08;;;;;;;3.63;2.17;;;;;;;5.46;57.59;98047.69;6301506;28;20414;-71
2022/10/17 14:48:21;;;;;;;2.30;1.88;;;;;;;5.46;57.82;98040.72;6302737;28;20041;-70
2022/10/17 14:51:26;;;;;;;2.70;2.10;;;;;;;5.38;57.41;98040.94;6302761;28;20127;-71
2022/10/17 14:54:29;;;;;;;;;;;;;;;5.35;56.85;98046.25;6303141;28;20421;-71